Time;durP1;ratioP1;P1;durP2;ratioP2;P2;SDS_P1;SDS_P2;PMS_P1;PMS_P2;Temp;Humidity;BMP_temperature;BMP_pressure;BME280_temperature;BME280_humidity;BME280_pressure;Samples;Min_cycle;Max_cycle;Signal;HPM_P1;HPM_P2
2021/01/24 00:00:46;;;;;;;37.30;23.27;;;4.40;90.20;;;;;;4937567;29;20062;-73
2021/01/24 00:03:13;;;;;;;38.60;22.30;;;4.30;90.30;;;;;;4937678;29;20472;-72
2021/01/24 00:05:40;;;;;;;37.33;22.97;;;4.30;90.40;;;;;;4917918;29;20032;-73
2021/01/24 00:08:06;;;;;;;37.43;22.53;;;4.30;90.40;;;;;;4918071;29;20035;-72
2021/01/24 00:10:31;;;;;;;34.70;21.30;;;4.40;90.50;;;;;;4919832;29;20028;-73
2021/01/24 00:12:57;;;;;;;37.63;20.83;;;4.30;90.60;;;;;;4922252;29;20396;-72
2021/01/24 00:15:22;;;;;;;38.27;20.60;;;4.30;90.60;;;;;;4921845;29;20027;-72
2021/01/24 00:17:48;;;;;;;34.30;20.17;;;4.30;90.70;;;;;;4938884;29;20032;-72
2021/01/24 00:20:14;;;;;;;35.90;18.73;;;4.30;90.60;;;;;;4921694;29;20087;-72
2021/01/24 00:22:39;;;;;;;31.17;18.60;;;4.30;90.60;;;;;;4906110;29;20472;-72
2021/01/24 00:25:06;;;;;;;36.40;20.67;;;4.20;90.60;;;;;;4938857;29;20035;-72
2021/01/24 00:27:31;;;;;;;31.17;19.33;;;4.20;90.70;;;;;;4921795;29;20027;-73
2021/01/24 00:29:57;;;;;;;36.83;20.83;;;4.20;90.70;;;;;;4921436;29;20518;-73
2021/01/24 00:32:23;;;;;;;30.53;19.70;;;4.20;90.70;;;;;;4938851;29;20032;-72
2021/01/24 00:34:48;;;;;;;31.73;18.23;;;4.20;90.70;;;;;;4938871;29;20019;-72
2021/01/24 00:37:14;;;;;;;31.07;18.37;;;4.10;90.70;;;;;;4905796;29;20052;-73
2021/01/24 00:39:40;;;;;;;30.17;18.20;;;4.10;90.70;;;;;;4921646;29;20031;-72
2021/01/24 00:42:06;;;;;;;33.70;17.17;;;4.10;90.70;;;;;;4921221;29;20391;-72
2021/01/24 00:44:31;;;;;;;30.40;17.00;;;4.10;90.70;;;;;;4938591;29;20132;-73
2021/01/24 00:46:57;;;;;;;31.70;17.80;;;4.10;90.70;;;;;;4938480;29;20488;-73
2021/01/24 00:49:23;;;;;;;32.47;17.40;;;4.10;90.70;;;;;;4921538;29;20484;-73
2021/01/24 00:51:48;;;;;;;29.37;17.63;;;4.00;90.70;;;;;;4938606;29;20072;-72
2021/01/24 00:54:14;;;;;;;30.07;17.43;;;4.00;90.80;;;;;;4921264;29;20070;-73
2021/01/24 00:56:40;;;;;;;30.63;16.87;;;4.00;90.90;;;;;;4938324;29;20028;-73
2021/01/24 00:59:06;;;;;;;27.57;16.60;;;4.00;90.90;;;;;;4920823;29;20036;-73
2021/01/24 01:01:31;;;;;;;25.57;15.57;;;4.00;90.90;;;;;;4920872;29;20040;-70
2021/01/24 01:03:57;;;;;;;31.37;16.40;;;4.00;90.90;;;;;;4905246;29;20038;-71
2021/01/24 01:06:22;;;;;;;26.70;14.73;;;3.90;90.90;;;;;;4905344;29;20122;-72
2021/01/24 01:08:48;;;;;;;23.93;13.00;;;4.00;91.30;;;;;;4905013;29;20031;-73
2021/01/24 01:11:13;;;;;;;29.53;14.80;;;3.90;91.00;;;;;;4920950;29;20047;-77
2021/01/24 01:13:39;;;;;;;22.63;12.70;;;3.80;91.00;;;;;;4920870;29;20111;-78
2021/01/24 01:16:05;;;;;;;23.57;12.13;;;3.90;91.00;;;;;;4920804;29;20038;-77
2021/01/24 01:18:31;;;;;;;24.27;13.53;;;3.90;91.10;;;;;;4937879;29;20050;-77
2021/01/24 01:20:57;;;;;;;18.87;10.97;;;3.90;91.10;;;;;;4920632;29;20040;-78
2021/01/24 01:23:23;;;;;;;26.33;12.80;;;3.90;91.40;;;;;;4920985;29;20040;-77
2021/01/24 01:25:58;;;;;;;26.73;12.73;;;3.90;91.10;;;;;;4920620;29;20556;-77
2021/01/24 01:28:23;;;;;;;22.43;12.50;;;3.90;91.10;;;;;;4920548;29;20107;-78
2021/01/24 01:30:49;;;;;;;20.23;11.83;;;3.80;91.10;;;;;;4920968;29;20039;-77
2021/01/24 01:33:16;;;;;;;22.10;12.67;;;3.80;91.20;;;;;;4904587;29;20059;-77
2021/01/24 01:35:42;;;;;;;25.37;12.30;;;3.80;91.30;;;;;;4937648;29;20424;-78
2021/01/24 01:38:08;;;;;;;25.00;12.40;;;3.80;91.30;;;;;;4920265;29;20024;-77
2021/01/24 01:40:33;;;;;;;26.03;13.00;;;3.90;91.50;;;;;;4937593;29;20086;-77
2021/01/24 01:42:59;;;;;;;26.40;12.40;;;3.80;91.40;;;;;;4937474;29;20035;-77
2021/01/24 01:45:25;;;;;;;23.17;11.57;;;3.80;91.50;;;;;;4937354;29;20115;-77
2021/01/24 01:47:52;;;;;;;25.27;12.57;;;3.80;91.50;;;;;;4916534;29;20067;-77
2021/01/24 01:50:19;;;;;;;25.53;13.43;;;3.70;91.60;;;;;;4933018;29;20511;-77
2021/01/24 01:52:45;;;;;;;22.43;12.90;;;3.80;91.60;;;;;;4918186;29;20477;-76
2021/01/24 01:55:11;;;;;;;24.63;11.97;;;3.80;91.70;;;;;;4917753;29;20131;-77
2021/01/24 01:57:37;;;;;;;20.33;11.07;;;3.80;91.70;;;;;;4918046;29;20040;-74
2021/01/24 02:00:05;;;;;;;27.20;11.33;;;3.80;91.80;;;;;;4916887;29;20091;-72
2021/01/24 02:03:14;;;;;;;24.80;11.90;;;3.70;91.70;;;;;;4918145;29;20111;-72
2021/01/24 02:05:55;;;;;;;19.30;10.00;;;3.70;91.80;;;;;;4881712;29;20396;-73
2021/01/24 02:08:37;;;;;;;25.47;10.50;;;3.70;91.80;;;;;;4916439;29;20035;-77
2021/01/24 02:11:15;;;;;;;16.83;8.43;;;3.70;91.80;;;;;;4917711;29;20039;-77
2021/01/24 02:14:05;;;;;;;16.30;7.70;;;3.70;91.80;;;;;;4916493;29;20028;-77
2021/01/24 02:16:33;;;;;;;17.47;8.97;;;3.70;91.80;;;;;;4917634;29;20426;-77
2021/01/24 02:19:00;;;;;;;17.63;8.63;;;3.70;91.80;;;;;;4917652;29;20032;-77
2021/01/24 02:21:32;;;;;;;20.17;8.93;;;3.60;91.80;;;;;;4917789;29;20039;-77
2021/01/24 02:24:04;;;;;;;16.83;7.97;;;3.70;91.90;;;;;;4917998;29;20040;-77
2021/01/24 02:26:41;;;;;;;16.10;7.30;;;3.60;91.80;;;;;;4917744;29;20159;-78
2021/01/24 02:29:15;;;;;;;14.40;7.03;;;3.60;91.80;;;;;;4916493;29;20032;-77
2021/01/24 02:31:42;;;;;;;14.77;6.87;;;3.60;91.80;;;;;;4916363;29;20024;-77
2021/01/24 02:34:10;;;;;;;13.27;6.83;;;3.60;91.80;;;;;;4917000;29;20362;-77
2021/01/24 02:36:38;;;;;;;13.60;6.80;;;3.70;91.90;;;;;;4917705;29;20035;-78
2021/01/24 02:39:05;;;;;;;13.23;6.33;;;3.70;91.90;;;;;;4917350;29;20392;-78
2021/01/24 02:41:32;;;;;;;12.17;6.10;;;3.70;91.80;;;;;;4917349;29;20063;-78
2021/01/24 02:43:59;;;;;;;12.90;6.33;;;3.70;91.70;;;;;;4915817;29;20373;-78
2021/01/24 02:46:25;;;;;;;15.63;6.80;;;3.70;91.70;;;;;;4917311;29;20087;-78
2021/01/24 02:48:53;;;;;;;13.53;6.13;;;3.70;91.80;;;;;;4934995;29;20189;-78
2021/01/24 02:51:19;;;;;;;11.60;6.13;;;3.80;91.70;;;;;;4919037;29;20035;-78
2021/01/24 02:53:48;;;;;;;16.57;6.93;;;3.70;91.70;;;;;;4903498;29;20028;-78
2021/01/24 02:56:15;;;;;;;12.23;6.00;;;3.80;91.70;;;;;;4919510;29;20059;-78
2021/01/24 02:58:41;;;;;;;11.87;6.50;;;3.80;91.60;;;;;;4936392;29;20036;-77
2021/01/24 03:01:07;;;;;;;15.97;7.03;;;3.80;91.70;;;;;;4935957;29;20103;-78
2021/01/24 03:03:33;;;;;;;14.00;7.47;;;3.80;91.60;;;;;;4936032;29;20039;-77
2021/01/24 03:05:59;;;;;;;13.83;7.27;;;3.80;91.60;;;;;;4918601;29;20036;-78
2021/01/24 03:08:24;;;;;;;13.60;7.43;;;3.80;91.60;;;;;;4902926;29;20046;-78
2021/01/24 03:10:50;;;;;;;18.73;7.80;;;3.70;91.60;;;;;;4935850;29;20108;-77
2021/01/24 03:13:23;;;;;;;15.07;6.77;;;3.70;91.60;;;;;;4919089;29;20032;-78
2021/01/24 03:15:50;;;;;;;19.10;7.70;;;3.70;91.60;;;;;;4935908;29;20464;-78
2021/01/24 03:18:20;;;;;;;17.57;7.73;;;3.70;91.60;;;;;;4919118;29;20131;-78
2021/01/24 03:20:50;;;;;;;16.10;7.90;;;3.70;91.60;;;;;;4935718;29;20396;-78
2021/01/24 03:23:16;;;;;;;17.70;8.60;;;3.70;91.60;;;;;;4935519;29;20476;-78
2021/01/24 03:25:43;;;;;;;23.07;9.10;;;3.70;91.60;;;;;;4903049;29;20028;-78
2021/01/24 03:28:09;;;;;;;19.23;9.03;;;3.70;91.60;;;;;;4935586;29;20082;-78
2021/01/24 03:30:36;;;;;;;17.93;8.17;;;3.70;91.70;;;;;;4935646;29;20023;-78
2021/01/24 03:33:02;;;;;;;18.73;10.10;;;3.80;91.70;;;;;;4918500;29;20027;-78
2021/01/24 03:35:28;;;;;;;17.57;9.73;;;3.70;91.70;;;;;;4935459;29;20040;-78
2021/01/24 03:37:54;;;;;;;24.10;10.37;;;3.70;91.70;;;;;;4935487;29;20028;-78
2021/01/24 03:40:19;;;;;;;25.67;11.50;;;3.70;91.80;;;;;;4902600;29;20036;-78
2021/01/24 03:42:45;;;;;;;24.23;12.30;;;3.70;91.80;;;;;;4918274;29;20039;-78
2021/01/24 03:45:12;;;;;;;25.50;12.13;;;3.70;91.80;;;;;;4936513;29;20071;-72
2021/01/24 03:47:38;;;;;;;26.80;12.27;;;3.70;92.10;;;;;;4906566;29;20051;-72
2021/01/24 03:50:05;;;;;;;26.33;12.00;;;3.70;91.80;;;;;;4922060;29;20135;-72
2021/01/24 03:52:31;;;;;;;21.73;11.43;;;3.70;91.80;;;;;;4921972;29;20030;-72
2021/01/24 03:54:56;;;;;;;20.63;10.57;;;3.70;92.10;;;;;;4906321;29;20037;-72
2021/01/24 03:57:22;;;;;;;17.50;9.80;;;3.70;91.80;;;;;;4922055;29;20110;-74
2021/01/24 03:59:51;;;;;;;20.40;10.77;;;3.70;91.90;;;;;;4939088;29;20032;-72
2021/01/24 04:02:17;;;;;;;22.30;9.97;;;3.70;91.90;;;;;;4921802;29;20036;-72
2021/01/24 04:04:43;;;;;;;19.97;10.50;;;3.70;91.90;;;;;;4922047;29;20558;-72
2021/01/24 04:07:08;;;;;;;17.67;9.97;;;3.70;92.00;;;;;;4921903;29;20035;-72
2021/01/24 04:09:34;;;;;;;20.57;10.17;;;3.70;92.00;;;;;;4921665;29;20039;-72
2021/01/24 04:11:59;;;;;;;22.87;10.73;;;3.70;92.10;;;;;;4938928;29;20038;-72
2021/01/24 04:14:25;;;;;;;20.53;10.20;;;3.70;92.10;;;;;;4921748;29;20031;-72
2021/01/24 04:16:51;;;;;;;19.53;9.73;;;3.60;92.10;;;;;;4921582;29;20040;-73
2021/01/24 04:19:16;;;;;;;23.23;11.47;;;3.60;92.10;;;;;;4938760;29;20036;-72
2021/01/24 04:21:42;;;;;;;23.83;11.07;;;3.60;92.20;;;;;;4906004;29;20472;-71
2021/01/24 04:24:07;;;;;;;21.70;11.30;;;3.60;92.20;;;;;;4905759;29;20046;-72
2021/01/24 04:26:33;;;;;;;23.10;11.73;;;3.60;92.20;;;;;;4938614;29;20063;-72
2021/01/24 04:28:59;;;;;;;20.80;11.23;;;3.60;92.30;;;;;;4938701;29;20046;-72
2021/01/24 04:31:24;;;;;;;21.90;11.67;;;3.50;92.40;;;;;;4921664;29;20035;-72
2021/01/24 04:33:50;;;;;;;24.20;11.73;;;3.60;92.50;;;;;;4921459;29;20027;-72
2021/01/24 04:36:15;;;;;;;23.83;12.07;;;3.50;92.50;;;;;;4921365;29;20032;-71
2021/01/24 04:38:41;;;;;;;21.67;12.07;;;3.50;92.50;;;;;;4921252;29;20067;-72
2021/01/24 04:41:07;;;;;;;23.27;11.87;;;3.50;92.90;;;;;;4938343;29;20031;-72
2021/01/24 04:43:33;;;;;;;24.63;11.80;;;3.50;92.70;;;;;;4938401;29;20019;-72
2021/01/24 04:46:00;;;;;;;23.70;11.33;;;3.50;92.70;;;;;;4905487;29;20183;-72
2021/01/24 04:48:26;;;;;;;23.30;11.77;;;3.50;92.70;;;;;;4920961;29;20535;-72
2021/01/24 04:50:53;;;;;;;23.30;11.73;;;3.50;92.80;;;;;;4921238;29;20559;-73
2021/01/24 04:53:20;;;;;;;22.87;10.63;;;3.50;93.00;;;;;;4938110;29;20114;-72
2021/01/24 04:55:46;;;;;;;23.90;12.67;;;3.50;92.80;;;;;;4937547;29;20565;-72
2021/01/24 04:58:12;;;;;;;24.20;10.90;;;3.50;92.70;;;;;;4938569;29;20477;-72
2021/01/24 05:00:38;;;;;;;24.13;12.00;;;3.50;92.80;;;;;;4937018;29;20032;-72
2021/01/24 05:03:04;;;;;;;24.00;11.23;;;3.50;92.80;;;;;;4936708;29;20039;-72
2021/01/24 05:05:29;;;;;;;23.87;10.50;;;3.40;92.80;;;;;;4936928;29;20063;-73
2021/01/24 05:07:59;;;;;;;23.63;10.30;;;3.50;92.90;;;;;;4903286;29;20040;-73
2021/01/24 05:10:34;;;;;;;22.90;11.20;;;3.40;92.90;;;;;;4938092;29;20064;-73
2021/01/24 05:13:00;;;;;;;26.17;11.60;;;3.40;92.90;;;;;;4920642;29;20039;-73
2021/01/24 05:15:27;;;;;;;22.60;11.60;;;3.40;93.00;;;;;;4919674;29;20028;-73
2021/01/24 05:18:01;;;;;;;19.40;10.73;;;3.40;92.90;;;;;;4937413;29;20036;-73
2021/01/24 05:20:29;;;;;;;21.03;10.37;;;3.40;92.90;;;;;;4937580;29;20028;-73
2021/01/24 05:22:56;;;;;;;22.13;10.60;;;3.40;93.00;;;;;;4937560;29;20035;-73
2021/01/24 05:25:29;;;;;;;24.73;11.37;;;3.40;93.00;;;;;;4937728;29;20027;-72
2021/01/24 05:27:56;;;;;;;23.23;11.67;;;3.40;93.00;;;;;;4920283;29;20027;-73
2021/01/24 05:30:30;;;;;;;23.07;10.93;;;3.40;93.10;;;;;;4937413;29;20028;-73
2021/01/24 05:32:58;;;;;;;23.85;10.38;;;3.40;93.10;;;;;;4921484;29;20024;-73
2021/01/24 05:35:25;;;;;;;20.20;10.33;;;3.30;93.10;;;;;;4916472;29;20086;-73
2021/01/24 05:37:50;;;;;;;22.77;9.53;;;3.30;93.10;;;;;;4936674;29;20028;-73
2021/01/24 05:40:16;;;;;;;19.73;9.33;;;3.30;93.20;;;;;;4918668;29;20038;-73
2021/01/24 05:42:43;;;;;;;18.27;8.77;;;3.30;93.10;;;;;;4919870;29;20541;-74
2021/01/24 05:45:16;;;;;;;21.90;8.83;;;3.30;93.20;;;;;;4937365;29;20031;-73
2021/01/24 05:47:43;;;;;;;21.53;8.33;;;3.30;93.20;;;;;;4903744;29;20054;-74
2021/01/24 05:50:21;;;;;;;19.07;9.07;;;3.30;93.20;;;;;;4937050;29;20024;-73
2021/01/24 05:52:49;;;;;;;19.67;9.17;;;3.30;93.30;;;;;;4917140;29;20346;-73
2021/01/24 05:55:31;;;;;;;15.50;7.70;;;3.20;93.30;;;;;;4937305;29;20036;-78
2021/01/24 05:57:57;;;;;;;18.10;8.17;;;3.20;93.30;;;;;;4920332;29;20469;-78
2021/01/24 06:00:24;;;;;;;17.77;8.10;;;3.30;93.40;;;;;;4936887;29;20106;-78
2021/01/24 06:02:50;;;;;;;18.50;8.33;;;3.20;93.40;;;;;;4919975;29;20107;-79
2021/01/24 06:05:15;;;;;;;18.80;7.77;;;3.20;93.40;;;;;;4936824;29;20103;-79
2021/01/24 06:07:41;;;;;;;15.57;7.77;;;3.30;93.40;;;;;;4936023;29;20031;-79
2021/01/24 06:10:07;;;;;;;16.73;7.27;;;3.30;93.40;;;;;;4936667;29;20455;-78
2021/01/24 06:12:35;;;;;;;16.27;7.20;;;3.30;93.30;;;;;;4919662;29;20030;-78
2021/01/24 06:15:04;;;;;;;16.23;7.07;;;3.20;93.30;;;;;;4936890;29;20119;-79
2021/01/24 06:17:43;;;;;;;15.67;6.47;;;3.20;93.20;;;;;;4936884;29;20445;-78
2021/01/24 06:20:11;;;;;;;17.60;6.67;;;3.20;93.20;;;;;;4936791;29;20030;-78
2021/01/24 06:22:54;;;;;;;12.23;6.10;;;3.20;93.20;;;;;;4919518;29;20040;-78
2021/01/24 06:25:31;;;;;;;17.07;6.80;;;3.20;93.20;;;;;;4919446;29;20031;-78
2021/01/24 06:28:04;;;;;;;16.70;7.83;;;3.20;93.20;;;;;;4936453;29;20099;-79
2021/01/24 06:30:30;;;;;;;13.13;6.17;;;3.20;93.30;;;;;;4936742;29;20028;-78
2021/01/24 06:32:56;;;;;;;15.07;6.80;;;3.20;93.30;;;;;;4936705;29;20182;-78
2021/01/24 06:35:24;;;;;;;14.30;6.83;;;3.10;93.20;;;;;;4936495;29;20451;-78
2021/01/24 06:37:51;;;;;;;17.87;7.17;;;3.10;93.20;;;;;;4919496;29;20043;-78
2021/01/24 06:40:21;;;;;;;16.00;6.27;;;3.10;93.30;;;;;;4936387;29;20020;-78
2021/01/24 06:42:53;;;;;;;16.10;7.23;;;3.10;93.30;;;;;;4936297;29;20035;-79
2021/01/24 06:45:21;;;;;;;17.13;7.43;;;3.00;93.30;;;;;;4935839;29;20106;-78
2021/01/24 06:47:47;;;;;;;14.83;7.03;;;3.00;93.40;;;;;;4935709;29;20059;-78
2021/01/24 06:50:36;;;;;;;14.37;6.17;;;3.00;93.60;;;;;;4902247;29;20043;-78
2021/01/24 06:53:09;;;;;;;14.83;6.67;;;3.00;93.40;;;;;;4934942;29;20024;-78
2021/01/24 06:55:36;;;;;;;13.30;5.57;;;3.00;93.50;;;;;;4935905;29;20024;-78
2021/01/24 06:58:24;;;;;;;13.73;7.13;;;3.00;93.50;;;;;;4918795;29;20448;-78
2021/01/24 07:00:50;;;;;;;18.00;6.73;;;3.00;93.50;;;;;;4918284;29;20035;-78
2021/01/24 07:03:20;;;;;;;17.03;7.07;;;3.00;93.50;;;;;;4918717;29;20559;-77
2021/01/24 07:05:46;;;;;;;17.23;7.73;;;2.90;93.60;;;;;;4935912;29;20034;-77
2021/01/24 07:08:29;;;;;;;16.33;7.13;;;2.90;93.70;;;;;;4935657;29;20032;-77
2021/01/24 07:10:55;;;;;;;15.97;6.47;;;2.90;93.70;;;;;;4918585;29;20038;-78
2021/01/24 07:13:27;;;;;;;16.80;7.90;;;2.80;93.70;;;;;;4918838;29;20039;-78
2021/01/24 07:16:06;;;;;;;17.40;7.73;;;2.90;93.80;;;;;;4918619;29;20126;-79
2021/01/24 07:18:43;;;;;;;16.50;7.43;;;2.90;93.70;;;;;;4935724;29;20462;-79
2021/01/24 07:21:09;;;;;;;18.33;7.60;;;2.90;93.60;;;;;;4935939;29;20062;-78
2021/01/24 07:23:38;;;;;;;15.67;6.93;;;2.80;93.60;;;;;;4918733;29;20085;-79
2021/01/24 07:26:04;;;;;;;14.27;7.17;;;2.80;93.60;;;;;;4935983;29;20109;-78
2021/01/24 07:28:30;;;;;;;14.60;7.47;;;2.80;93.60;;;;;;4935618;29;20463;-78
2021/01/24 07:31:01;;;;;;;16.43;7.60;;;2.80;93.60;;;;;;4935780;29;20078;-78
2021/01/24 07:33:28;;;;;;;14.13;6.53;;;2.80;93.70;;;;;;4935795;29;20070;-78
2021/01/24 07:36:01;;;;;;;16.63;7.30;;;2.80;93.60;;;;;;4935892;29;20039;-79
2021/01/24 07:38:28;;;;;;;13.80;6.70;;;2.80;93.60;;;;;;4935610;29;20106;-78
2021/01/24 07:41:00;;;;;;;13.27;5.57;;;2.80;93.60;;;;;;4918274;29;20392;-78
2021/01/24 07:43:27;;;;;;;13.30;6.20;;;2.80;93.50;;;;;;4918730;29;20035;-79
2021/01/24 07:45:54;;;;;;;15.17;7.07;;;2.80;93.50;;;;;;4918462;29;20520;-80
2021/01/24 07:48:19;;;;;;;13.17;6.60;;;2.80;93.50;;;;;;4935430;29;20044;-77
2021/01/24 07:50:45;;;;;;;14.33;6.40;;;2.80;93.50;;;;;;4918530;29;20027;-78
2021/01/24 07:53:12;;;;;;;14.67;5.97;;;2.90;93.60;;;;;;4918568;29;20391;-78
2021/01/24 07:55:37;;;;;;;13.87;6.53;;;2.70;93.50;;;;;;4935560;29;20540;-78
2021/01/24 07:58:04;;;;;;;14.17;5.43;;;2.80;93.60;;;;;;4935718;29;20055;-79
2021/01/24 08:00:32;;;;;;;15.47;5.90;;;2.80;93.50;;;;;;4935682;29;20358;-73
2021/01/24 08:02:58;;;;;;;13.57;6.00;;;2.80;93.60;;;;;;4935583;29;20488;-72
2021/01/24 08:05:29;;;;;;;14.37;6.63;;;2.80;93.60;;;;;;4918682;29;20121;-72
2021/01/24 08:07:55;;;;;;;16.10;6.17;;;2.80;93.60;;;;;;4935516;29;20028;-73
2021/01/24 08:10:20;;;;;;;13.70;6.37;;;2.80;93.60;;;;;;4935544;29;20111;-72
2021/01/24 08:12:46;;;;;;;13.30;6.13;;;2.80;93.70;;;;;;4935473;29;20036;-72
2021/01/24 08:15:12;;;;;;;16.40;6.53;;;2.70;93.60;;;;;;4902787;29;20039;-72
2021/01/24 08:17:40;;;;;;;12.57;5.63;;;2.80;93.70;;;;;;4918282;29;20035;-72
2021/01/24 08:20:07;;;;;;;13.10;6.20;;;2.80;93.70;;;;;;4918783;29;20036;-73
2021/01/24 08:22:33;;;;;;;13.33;6.07;;;2.80;93.70;;;;;;4902569;29;20063;-72
2021/01/24 08:25:00;;;;;;;12.53;5.87;;;2.80;93.80;;;;;;4933778;29;20059;-73
2021/01/24 08:27:27;;;;;;;11.07;5.53;;;2.70;93.80;;;;;;4906105;29;20035;-72
2021/01/24 08:29:53;;;;;;;11.47;5.03;;;2.70;93.80;;;;;;4954324;28;20118;-72
2021/01/24 08:32:20;;;;;;;9.47;4.03;;;2.70;93.80;;;;;;4944115;29;20028;-72
2021/01/24 08:34:45;;;;;;;9.63;3.80;;;2.70;93.80;;;;;;4944494;29;20035;-73
2021/01/24 08:37:12;;;;;;;13.23;5.33;;;2.70;93.80;;;;;;4948240;29;20027;-72
2021/01/24 08:39:37;;;;;;;7.50;3.90;;;2.60;93.80;;;;;;4949072;29;20383;-73
2021/01/24 08:42:06;;;;;;;12.47;3.97;;;2.70;93.80;;;;;;4940252;29;20031;-72
2021/01/24 08:44:32;;;;;;;9.57;3.90;;;2.60;93.80;;;;;;4940656;29;20182;-73
2021/01/24 08:47:04;;;;;;;8.13;3.37;;;2.60;93.90;;;;;;4938131;29;20531;-72
2021/01/24 08:49:30;;;;;;;8.70;2.87;;;2.60;93.90;;;;;;4945710;29;20341;-72
2021/01/24 08:52:02;;;;;;;8.47;3.50;;;2.60;94.00;;;;;;4921380;29;20031;-73
2021/01/24 08:54:32;;;;;;;8.40;3.70;;;2.60;93.90;;;;;;4938430;29;20034;-72
2021/01/24 08:57:09;;;;;;;6.27;3.10;;;2.60;94.00;;;;;;4921543;29;20028;-72
2021/01/24 08:59:36;;;;;;;8.50;3.60;;;2.60;94.00;;;;;;4938439;29;20051;-73
2021/01/24 09:02:02;;;;;;;6.77;2.67;;;2.60;94.00;;;;;;4921459;29;20035;-73
2021/01/24 09:04:35;;;;;;;7.17;3.27;;;2.60;94.00;;;;;;4938421;29;20472;-73
2021/01/24 09:07:12;;;;;;;4.95;2.30;;;2.60;94.00;;;;;;4922922;29;20024;-73
2021/01/24 09:09:45;;;;;;;5.50;2.67;;;2.60;94.00;;;;;;4957479;29;20031;-73
2021/01/24 09:12:19;;;;;;;9.80;3.58;;;2.70;94.00;;;;;;4957525;29;20034;-72
2021/01/24 09:14:45;;;;;;;8.13;3.30;;;2.60;94.00;;;;;;4957371;29;20106;-73
2021/01/24 09:17:16;;;;;;;5.60;2.60;;;2.60;93.90;;;;;;4940026;29;20055;-74
2021/01/24 09:19:44;;;;;;;6.07;2.77;;;2.60;93.90;;;;;;4957215;29;20480;-73
2021/01/24 09:22:13;;;;;;;6.57;2.60;;;2.60;94.20;;;;;;4957222;29;20027;-73
2021/01/24 09:24:39;;;;;;;5.93;2.53;;;2.60;94.00;;;;;;4957144;29;20034;-73
2021/01/24 09:27:06;;;;;;;5.67;2.33;;;2.70;94.10;;;;;;4939890;29;20059;-73
2021/01/24 09:29:35;;;;;;;3.53;1.43;;;2.70;94.40;;;;;;4939832;29;20090;-73
2021/01/24 09:32:02;;;;;;;4.97;1.60;;;2.80;94.20;;;;;;4940420;29;20082;-73
2021/01/24 09:34:28;;;;;;;6.33;1.50;;;2.80;94.10;;;;;;4957062;29;20027;-73
2021/01/24 09:36:53;;;;;;;3.87;1.33;;;2.80;94.10;;;;;;4939847;29;20383;-73
2021/01/24 09:39:19;;;;;;;3.57;1.50;;;2.80;94.10;;;;;;4923864;29;20033;-73
2021/01/24 09:41:45;;;;;;;9.50;2.13;;;2.90;94.20;;;;;;4923891;28;20376;-73
2021/01/24 09:44:10;;;;;;;4.57;2.17;;;3.00;94.30;;;;;;4956756;29;20503;-73
2021/01/24 09:46:36;;;;;;;7.50;2.10;;;3.10;94.30;;;;;;4923710;29;20028;-72
2021/01/24 09:49:05;;;;;;;9.50;2.33;;;3.20;94.30;;;;;;4956587;29;20461;-71
2021/01/24 09:51:30;;;;;;;6.03;1.93;;;3.40;94.20;;;;;;4956625;29;20043;-72
2021/01/24 09:53:56;;;;;;;4.10;1.80;;;3.70;94.50;;;;;;4939679;29;20090;-73
2021/01/24 09:56:24;;;;;;;3.93;1.30;;;4.00;94.70;;;;;;4939449;29;20491;-73
2021/01/24 09:58:49;;;;;;;3.97;1.40;;;4.40;94.60;;;;;;4956597;29;20031;-71
2021/01/24 10:01:16;;;;;;;4.17;1.37;;;4.80;95.00;;;;;;4923607;29;20027;-71
2021/01/24 10:03:42;;;;;;;3.93;1.30;;;5.40;95.40;;;;;;4956590;29;20486;-72
2021/01/24 10:06:08;;;;;;;3.07;1.27;;;6.00;95.40;;;;;;4939276;29;20027;-72
2021/01/24 10:08:33;;;;;;;2.83;0.83;;;6.70;95.80;;;;;;4938886;29;20468;-73
2021/01/24 10:10:59;;;;;;;2.90;0.73;;;7.50;94.90;;;;;;4950901;29;20118;-72
2021/01/24 10:13:25;;;;;;;3.33;0.80;;;8.10;94.00;;;;;;4933475;29;20085;-72
2021/01/24 10:15:51;;;;;;;2.00;0.50;;;8.90;94.00;;;;;;4910259;29;20487;-72
2021/01/24 10:18:20;;;;;;;2.30;0.60;;;9.40;92.70;;;;;;4920203;29;20075;-73
2021/01/24 10:20:45;;;;;;;2.53;0.80;;;10.00;91.30;;;;;;4937308;29;20039;-73
2021/01/24 10:23:12;;;;;;;3.10;0.73;;;10.50;88.60;;;;;;4904636;29;20031;-73
2021/01/24 10:25:38;;;;;;;4.00;0.93;;;11.00;87.90;;;;;;4937553;29;20044;-72
2021/01/24 10:28:04;;;;;;;2.10;0.50;;;11.40;85.00;;;;;;4920092;29;20487;-72
2021/01/24 10:30:30;;;;;;;2.92;0.75;;;11.80;81.20;;;;;;4937105;29;20024;-72
2021/01/24 10:32:56;;;;;;;3.15;0.68;;;12.20;78.50;;;;;;4936798;29;20035;-74
2021/01/24 10:35:22;;;;;;;5.10;0.80;;;12.30;72.90;;;;;;4936745;29;20530;-73
2021/01/24 10:37:48;;;;;;;2.78;0.80;;;12.20;70.00;;;;;;4919944;29;20032;-74
2021/01/24 10:40:14;;;;;;;3.38;0.60;;;12.20;68.20;;;;;;4937101;29;20114;-73
2021/01/24 10:42:40;;;;;;;2.75;0.60;;;12.30;67.40;;;;;;4937058;29;20036;-72
2021/01/24 10:45:07;;;;;;;3.92;0.63;;;12.50;67.70;;;;;;4919788;29;20451;-72
2021/01/24 10:47:33;;;;;;;2.60;0.65;;;12.70;65.70;;;;;;4919824;29;20102;-73
2021/01/24 10:49:59;;;;;;;1.83;0.50;;;12.90;65.90;;;;;;4936646;29;20040;-73
2021/01/24 10:52:25;;;;;;;3.35;0.40;;;13.10;65.90;;;;;;4920269;29;20052;-72
2021/01/24 10:54:50;;;;;;;1.83;0.50;;;13.20;62.50;;;;;;4936512;29;20031;-73
2021/01/24 10:57:16;;;;;;;1.77;0.40;;;13.10;61.80;;;;;;4936772;29;20031;-72
2021/01/24 10:59:41;;;;;;;2.50;0.40;;;13.10;61.20;;;;;;4919955;29;20032;-73
2021/01/24 11:02:07;;;;;;;2.60;0.60;;;13.10;61.40;;;;;;4919773;29;20032;-78
2021/01/24 11:04:33;;;;;;;2.88;0.63;;;13.20;60.60;;;;;;4936483;29;20130;-78
2021/01/24 11:07:00;;;;;;;4.00;0.50;;;13.40;59.80;;;;;;4903455;29;20038;-78
2021/01/24 11:09:26;;;;;;;3.15;0.50;;;13.70;59.10;;;;;;4936176;29;20058;-78
2021/01/24 11:11:52;;;;;;;1.95;0.45;;;13.80;58.70;;;;;;4936079;29;20083;-78
2021/01/24 11:14:18;;;;;;;2.58;0.52;;;14.10;57.90;;;;;;4919259;29;20028;-78
2021/01/24 11:16:44;;;;;;;2.47;0.60;;;14.20;57.00;;;;;;4919208;29;20180;-78
2021/01/24 11:19:09;;;;;;;1.77;0.40;;;14.40;56.30;;;;;;4919349;29;20036;-79
2021/01/24 11:21:35;;;;;;;3.03;0.50;;;14.20;57.30;;;;;;4936812;29;20040;-78
2021/01/24 11:24:01;;;;;;;3.55;0.50;;;14.10;55.90;;;;;;4936382;29;20544;-77
2021/01/24 11:26:27;;;;;;;2.33;0.40;;;14.30;56.70;;;;;;4919383;29;20376;-78
2021/01/24 11:28:52;;;;;;;2.55;0.52;;;14.60;56.90;;;;;;4936348;29;20074;-78
2021/01/24 11:31:18;;;;;;;2.88;0.57;;;14.90;55.70;;;;;;4936174;29;20028;-77
2021/01/24 11:33:45;;;;;;;3.97;0.75;;;14.90;53.40;;;;;;4935913;29;20032;-78
2021/01/24 11:36:11;;;;;;;3.10;0.50;;;14.90;53.20;;;;;;4936231;29;20032;-78
2021/01/24 11:38:37;;;;;;;3.15;0.50;;;14.90;52.90;;;;;;4918908;29;20368;-78
2021/01/24 11:41:04;;;;;;;2.42;0.43;;;14.90;53.90;;;;;;4936130;29;20032;-78
2021/01/24 11:43:29;;;;;;;4.95;0.80;;;15.00;53.40;;;;;;4935908;29;20036;-78
2021/01/24 11:45:56;;;;;;;1.80;0.45;;;15.20;53.60;;;;;;4918903;29;20035;-78
2021/01/24 11:48:21;;;;;;;3.85;0.50;;;15.40;53.90;;;;;;4935867;29;20115;-77
2021/01/24 11:50:47;;;;;;;3.53;0.68;;;15.60;53.40;;;;;;4935901;29;20445;-78
2021/01/24 11:53:13;;;;;;;3.25;0.43;;;15.70;52.70;;;;;;4935849;29;20119;-78
2021/01/24 11:55:38;;;;;;;4.57;0.60;;;15.80;52.60;;;;;;4937154;29;20102;-79
2021/01/24 11:58:04;;;;;;;5.95;0.50;;;15.80;51.70;;;;;;4949572;29;20066;-79
2021/01/24 12:00:30;;;;;;;2.55;0.70;;;15.70;51.50;;;;;;4919046;29;20024;-78
2021/01/24 12:02:55;;;;;;;4.88;0.75;;;15.80;51.40;;;;;;4918697;29;20051;-78
2021/01/24 12:05:21;;;;;;;2.55;0.50;;;16.00;51.70;;;;;;4935824;29;20035;-78
2021/01/24 12:07:46;;;;;;;3.53;0.80;;;16.10;50.20;;;;;;4906530;29;20031;-79
2021/01/24 12:10:12;;;;;;;2.75;0.73;;;16.10;49.70;;;;;;4922512;29;20043;-79
2021/01/24 12:12:38;;;;;;;5.95;1.15;;;15.90;50.00;;;;;;4939202;29;20066;-79
2021/01/24 12:15:04;;;;;;;3.15;0.70;;;15.80;49.40;;;;;;4939588;29;20076;-79
2021/01/24 12:17:30;;;;;;;6.90;0.70;;;15.50;48.90;;;;;;4922081;29;20479;-79
2021/01/24 12:19:56;;;;;;;4.40;0.80;;;15.30;48.30;;;;;;4944213;29;20040;-74
2021/01/24 12:22:21;;;;;;;3.08;0.70;;;14.90;48.80;;;;;;4951791;29;20542;-74
2021/01/24 12:24:47;;;;;;;8.02;1.05;;;14.30;48.80;;;;;;4941328;29;20065;-73
2021/01/24 12:27:12;;;;;;;4.43;1.10;;;13.80;49.70;;;;;;4941041;29;20086;-73
2021/01/24 12:29:40;;;;;;;6.47;1.48;;;13.30;50.80;;;;;;4925021;29;20031;-73
2021/01/24 12:32:06;;;;;;;5.28;1.05;;;12.80;50.80;;;;;;4958091;29;20027;-73
2021/01/24 12:34:32;;;;;;;9.00;1.48;;;12.20;51.60;;;;;;4957925;29;20034;-73
2021/01/24 12:36:57;;;;;;;7.47;1.08;;;11.70;52.90;;;;;;4958450;29;20392;-73
2021/01/24 12:39:23;;;;;;;7.03;1.30;;;11.30;53.90;;;;;;4958061;29;20114;-73
2021/01/24 12:41:48;;;;;;;5.78;1.48;;;11.20;54.70;;;;;;4940754;29;20479;-74
2021/01/24 12:44:14;;;;;;;5.03;1.20;;;11.20;55.30;;;;;;4957998;29;20039;-73
2021/01/24 12:46:40;;;;;;;7.43;1.30;;;11.40;55.40;;;;;;4957679;29;20122;-73